createdAt,value
2022-12-11T00:00:08.193Z,4.60
2022-12-11T00:02:36.013Z,4.60
2022-12-11T00:05:02.891Z,4.60
2022-12-11T00:07:29.497Z,4.60
2022-12-11T00:09:56.108Z,4.50
2022-12-11T00:12:22.758Z,4.50
2022-12-11T00:14:49.408Z,4.50
2022-12-11T00:17:16.066Z,4.50
2022-12-11T00:19:42.740Z,4.50
2022-12-11T00:22:09.322Z,4.50
2022-12-11T00:24:35.955Z,4.50
2022-12-11T00:27:02.676Z,4.50
2022-12-11T00:29:29.283Z,4.50
2022-12-11T00:31:55.944Z,4.50
2022-12-11T00:34:22.630Z,4.50
2022-12-11T00:36:49.343Z,4.40
2022-12-11T00:39:15.944Z,4.40
2022-12-11T00:41:42.601Z,4.40
2022-12-11T00:44:09.332Z,4.40
2022-12-11T00:46:35.989Z,4.40
2022-12-11T00:49:02.592Z,4.40
2022-12-11T00:51:29.403Z,4.40
2022-12-11T00:53:55.991Z,4.40
2022-12-11T00:56:24.542Z,4.40
2022-12-11T00:58:51.818Z,4.40
2022-12-11T01:01:21.547Z,4.40
2022-12-11T01:03:48.983Z,4.40
2022-12-11T01:06:21.088Z,4.40
2022-12-11T01:09:09.506Z,4.40
2022-12-11T01:11:36.121Z,4.40
2022-12-11T01:14:02.866Z,4.40
2022-12-11T01:16:29.654Z,4.40
2022-12-11T01:18:57.270Z,4.30
2022-12-11T01:21:24.166Z,4.30
2022-12-11T01:23:52.196Z,4.30
2022-12-11T01:26:19.187Z,4.30
2022-12-11T01:28:45.937Z,4.30
2022-12-11T01:31:17.087Z,4.30
2022-12-11T01:33:44.327Z,4.30
2022-12-11T01:36:14.084Z,4.30
2022-12-11T01:38:40.880Z,4.30
2022-12-11T01:41:08.759Z,4.30
2022-12-11T01:43:36.152Z,4.30
2022-12-11T01:46:03.139Z,4.30
2022-12-11T01:48:32.971Z,4.30
2022-12-11T01:51:04.596Z,4.30
2022-12-11T01:53:40.517Z,4.30
2022-12-11T01:56:08.411Z,4.30
2022-12-11T01:58:40.314Z,4.30
2022-12-11T02:01:07.277Z,4.30
2022-12-11T02:03:34.000Z,4.30
2022-12-11T02:06:01.827Z,4.30
2022-12-11T02:08:29.179Z,4.30
2022-12-11T02:11:16.016Z,4.30
2022-12-11T02:14:05.358Z,4.30
2022-12-11T02:17:21.527Z,4.30
2022-12-11T02:20:13.054Z,4.20
2022-12-11T02:22:42.661Z,4.20
2022-12-11T02:25:25.797Z,4.20
2022-12-11T02:28:21.355Z,4.20
2022-12-11T02:30:52.590Z,4.20
2022-12-11T02:33:23.433Z,4.20
2022-12-11T02:35:50.888Z,4.20
2022-12-11T02:38:27.306Z,4.20
2022-12-11T02:40:56.030Z,4.20
2022-12-11T02:43:24.397Z,4.20
2022-12-11T02:45:52.736Z,4.20
2022-12-11T02:48:22.874Z,4.20
2022-12-11T02:50:54.140Z,4.20
2022-12-11T02:53:23.156Z,4.20
2022-12-11T02:55:53.079Z,4.20
2022-12-11T02:58:28.136Z,4.20
2022-12-11T03:00:54.760Z,4.20
2022-12-11T03:03:22.055Z,4.20
2022-12-11T03:05:48.719Z,4.20
2022-12-11T03:08:17.638Z,4.20
2022-12-11T03:10:46.260Z,4.20
2022-12-11T03:13:16.293Z,4.20
2022-12-11T03:15:52.256Z,4.20
2022-12-11T03:18:31.121Z,4.20
2022-12-11T03:21:09.514Z,4.20
2022-12-11T03:23:54.527Z,4.20
2022-12-11T03:26:23.197Z,4.20
2022-12-11T03:29:00.986Z,4.20
2022-12-11T03:31:53.966Z,4.20
2022-12-11T03:34:27.463Z,4.20
2022-12-11T03:36:57.590Z,4.20
2022-12-11T03:39:39.079Z,4.20
2022-12-11T03:42:08.367Z,4.20
2022-12-11T03:44:36.624Z,4.20
2022-12-11T03:47:07.337Z,4.20
2022-12-11T03:49:39.780Z,4.20
2022-12-11T03:52:07.745Z,4.20
2022-12-11T03:54:35.100Z,4.20
2022-12-11T03:57:04.119Z,4.20
2022-12-11T03:59:30.734Z,4.20
2022-12-11T04:01:57.518Z,4.20
2022-12-11T04:04:24.189Z,4.10
2022-12-11T04:06:50.811Z,4.10
2022-12-11T04:09:17.661Z,4.10
2022-12-11T04:11:44.460Z,4.10
2022-12-11T04:14:32.617Z,4.10
2022-12-11T04:17:00.674Z,4.10
2022-12-11T04:19:45.894Z,4.10
2022-12-11T04:22:33.175Z,4.10
2022-12-11T04:25:01.090Z,4.20
2022-12-11T04:27:46.116Z,4.10
2022-12-11T04:30:20.103Z,4.10
2022-12-11T04:32:46.769Z,4.10
2022-12-11T04:35:13.924Z,4.10
2022-12-11T04:37:41.035Z,4.10
2022-12-11T04:40:11.249Z,4.10
2022-12-11T04:42:41.010Z,4.10
2022-12-11T04:45:08.801Z,4.10
2022-12-11T04:47:37.124Z,4.10
2022-12-11T04:50:06.116Z,4.10
2022-12-11T04:52:32.815Z,4.10
2022-12-11T04:54:59.415Z,4.10
2022-12-11T04:57:26.059Z,4.10
2022-12-11T04:59:52.816Z,4.10
2022-12-11T05:02:19.412Z,4.10
2022-12-11T05:04:45.990Z,4.10
2022-12-11T05:07:12.583Z,4.10
2022-12-11T05:09:39.397Z,4.10
2022-12-11T05:12:06.038Z,4.10
2022-12-11T05:14:33.017Z,4.10
2022-12-11T05:17:00.232Z,4.10
2022-12-11T05:19:27.192Z,4.10
2022-12-11T05:21:54.155Z,4.10
2022-12-11T05:24:20.735Z,4.10
2022-12-11T05:26:47.356Z,4.10
2022-12-11T05:29:13.960Z,4.10
2022-12-11T05:31:40.607Z,4.10
2022-12-11T05:34:07.251Z,4.10
2022-12-11T05:36:34.485Z,4.10
2022-12-11T05:39:02.113Z,4.10
2022-12-11T05:41:32.555Z,4.10
2022-12-11T05:44:02.457Z,4.10
2022-12-11T05:46:31.096Z,4.10
2022-12-11T05:49:00.029Z,4.10
2022-12-11T05:51:28.147Z,4.10
2022-12-11T05:53:56.505Z,4.10
2022-12-11T05:56:26.567Z,4.10
2022-12-11T05:58:54.098Z,4.10
2022-12-11T06:01:27.363Z,4.10
2022-12-11T06:03:55.730Z,4.10
2022-12-11T06:06:23.262Z,4.10
2022-12-11T06:08:51.394Z,4.00
2022-12-11T06:11:23.587Z,4.00
2022-12-11T06:13:50.584Z,4.10
2022-12-11T06:16:17.395Z,4.10
2022-12-11T06:18:45.265Z,4.00
2022-12-11T06:21:26.611Z,4.00
2022-12-11T06:23:54.899Z,4.00
2022-12-11T06:26:22.689Z,4.00
2022-12-11T06:28:50.022Z,4.00
2022-12-11T06:31:17.055Z,4.00
2022-12-11T06:33:43.818Z,4.00
2022-12-11T06:36:13.842Z,4.00
2022-12-11T06:38:41.277Z,4.00
2022-12-11T06:41:09.056Z,4.00
2022-12-11T06:43:38.024Z,4.00
2022-12-11T06:46:13.475Z,4.00
2022-12-11T06:48:42.328Z,4.00
2022-12-11T06:51:12.668Z,4.00
2022-12-11T06:53:40.044Z,4.00
2022-12-11T06:56:09.934Z,4.00
2022-12-11T06:58:37.759Z,4.00
2022-12-11T07:01:05.738Z,4.00
2022-12-11T07:03:32.457Z,4.00
2022-12-11T07:06:02.765Z,4.00
2022-12-11T07:08:30.228Z,4.00
2022-12-11T07:11:03.595Z,4.00
2022-12-11T07:13:30.353Z,4.00
2022-12-11T07:15:59.263Z,4.00
2022-12-11T07:18:26.727Z,4.00
2022-12-11T07:20:53.408Z,4.00
2022-12-11T07:23:20.231Z,4.00
2022-12-11T07:25:47.126Z,4.00
2022-12-11T07:28:16.810Z,4.00
2022-12-11T07:30:43.655Z,4.00
2022-12-11T07:33:10.235Z,4.00
2022-12-11T07:35:37.104Z,4.00
2022-12-11T07:38:03.935Z,4.00
2022-12-11T07:40:30.593Z,4.00
2022-12-11T07:42:57.280Z,4.00
2022-12-11T07:45:26.320Z,4.00
2022-12-11T07:47:53.131Z,4.00
2022-12-11T07:50:20.118Z,3.90
2022-12-11T07:52:46.734Z,4.00
2022-12-11T07:55:13.683Z,4.00
2022-12-11T07:57:40.705Z,3.90
2022-12-11T08:00:08.101Z,4.00
2022-12-11T08:02:37.424Z,4.00
2022-12-11T08:05:04.866Z,4.00
2022-12-11T08:07:33.814Z,4.00
2022-12-11T08:10:00.445Z,4.00
2022-12-11T08:12:27.126Z,4.00
2022-12-11T08:14:53.737Z,3.90
2022-12-11T08:17:23.370Z,3.90
2022-12-11T08:19:54.085Z,3.90
2022-12-11T08:22:21.046Z,3.90
2022-12-11T08:24:47.829Z,3.90
2022-12-11T08:27:14.502Z,3.90
2022-12-11T08:29:41.171Z,3.90
2022-12-11T08:32:12.285Z,3.90
2022-12-11T08:34:39.394Z,3.90
2022-12-11T08:37:05.981Z,3.90
2022-12-11T08:39:32.595Z,4.00
2022-12-11T08:41:59.497Z,4.00
2022-12-11T08:44:27.181Z,4.00
2022-12-11T08:46:53.824Z,4.00
2022-12-11T08:49:20.781Z,4.00
2022-12-11T08:51:47.596Z,4.00
2022-12-11T08:54:14.223Z,4.00
2022-12-11T08:56:41.083Z,4.00
2022-12-11T08:59:09.191Z,4.00
2022-12-11T09:01:35.818Z,4.00
2022-12-11T09:04:03.012Z,4.10
2022-12-11T09:06:31.076Z,4.10
2022-12-11T09:09:00.319Z,4.10
2022-12-11T09:11:29.887Z,4.10
2022-12-11T09:13:56.579Z,4.10
2022-12-11T09:16:25.608Z,4.10
2022-12-11T09:18:53.877Z,4.10
2022-12-11T09:21:22.916Z,4.10
2022-12-11T09:23:50.876Z,4.10
2022-12-11T09:26:18.407Z,4.10
2022-12-11T09:28:47.592Z,4.10
2022-12-11T09:31:30.152Z,4.10
2022-12-11T09:33:59.641Z,4.10
2022-12-11T09:36:27.267Z,4.10
2022-12-11T09:38:54.209Z,4.20
2022-12-11T09:41:20.734Z,4.20
2022-12-11T09:43:55.021Z,4.20
2022-12-11T09:46:24.691Z,4.20
2022-12-11T09:48:53.746Z,4.20
2022-12-11T09:51:28.347Z,4.20
2022-12-11T09:53:57.654Z,4.20
2022-12-11T09:56:34.462Z,4.20
2022-12-11T09:59:40.933Z,4.20
2022-12-11T10:02:13.574Z,4.20
2022-12-11T10:04:59.190Z,4.20
2022-12-11T10:07:34.458Z,4.20
2022-12-11T10:10:22.673Z,4.20
2022-12-11T10:13:11.236Z,4.30
2022-12-11T10:16:04.447Z,4.30
2022-12-11T10:18:32.664Z,4.30
2022-12-11T10:21:01.684Z,4.30
2022-12-11T10:23:52.513Z,4.30
2022-12-11T10:26:22.120Z,4.30
2022-12-11T10:28:49.063Z,4.30
2022-12-11T10:31:32.245Z,4.30
2022-12-11T10:34:04.427Z,4.30
2022-12-11T10:36:35.296Z,4.30
2022-12-11T10:39:02.363Z,4.30
2022-12-11T10:41:31.933Z,4.30
2022-12-11T10:43:59.384Z,4.30
2022-12-11T10:46:28.578Z,4.30
2022-12-11T10:48:57.796Z,4.30
2022-12-11T10:51:37.012Z,4.30
2022-12-11T10:54:08.549Z,4.30
2022-12-11T10:56:37.639Z,4.40
2022-12-11T10:59:04.945Z,4.40
2022-12-11T11:01:32.638Z,4.40
2022-12-11T11:04:14.715Z,4.40
2022-12-11T11:06:41.330Z,4.40
2022-12-11T11:09:36.728Z,4.40
2022-12-11T11:12:07.920Z,4.40
2022-12-11T11:14:34.925Z,4.40
2022-12-11T11:17:01.853Z,4.40
2022-12-11T11:19:34.929Z,4.40
2022-12-11T11:22:15.179Z,4.40
2022-12-11T11:24:45.768Z,4.40
2022-12-11T11:27:29.583Z,4.40
2022-12-11T11:30:00.523Z,4.50
2022-12-11T11:32:33.448Z,4.50
2022-12-11T11:35:12.549Z,4.50
2022-12-11T11:37:53.313Z,4.50
2022-12-11T11:40:25.432Z,4.50
2022-12-11T11:43:15.693Z,4.50
2022-12-11T11:46:19.292Z,4.50
2022-12-11T11:48:52.238Z,4.50
2022-12-11T11:51:27.370Z,4.50
2022-12-11T11:53:59.553Z,4.50
2022-12-11T11:56:31.541Z,4.50
2022-12-11T11:59:18.677Z,4.50
2022-12-11T12:01:45.422Z,4.50
2022-12-11T12:04:12.309Z,4.50
2022-12-11T12:06:54.504Z,4.50
2022-12-11T12:09:27.105Z,4.50
2022-12-11T12:11:53.632Z,4.50
2022-12-11T12:17:40.576Z,4.50
2022-12-11T12:20:24.539Z,4.50
2022-12-11T12:23:25.709Z,4.50
2022-12-11T12:26:06.472Z,4.50
2022-12-11T12:28:45.108Z,4.50
2022-12-11T12:31:14.718Z,4.60
2022-12-11T12:33:50.330Z,4.50
2022-12-11T12:36:25.937Z,4.50
2022-12-11T12:39:08.087Z,4.50
2022-12-11T12:41:53.779Z,4.50
2022-12-11T12:44:25.618Z,4.50
2022-12-11T12:47:13.540Z,4.50
2022-12-11T12:49:46.389Z,4.50
2022-12-11T12:52:29.399Z,4.50
2022-12-11T12:55:14.296Z,4.50
2022-12-11T12:57:46.926Z,4.60
2022-12-11T13:00:14.144Z,4.60
2022-12-11T13:02:51.738Z,4.60
2022-12-11T13:05:34.004Z,4.60
2022-12-11T13:08:04.927Z,4.60
2022-12-11T13:10:34.680Z,4.60
2022-12-11T13:13:02.852Z,4.60
2022-12-11T13:15:43.096Z,4.60
2022-12-11T13:18:34.899Z,4.60
2022-12-11T13:21:03.560Z,4.60
2022-12-11T13:23:35.158Z,4.60
2022-12-11T13:26:03.791Z,4.60
2022-12-11T13:28:48.223Z,4.50
2022-12-11T13:31:14.837Z,4.50
2022-12-11T13:33:50.755Z,4.60
2022-12-11T13:36:24.506Z,4.60
2022-12-11T13:38:56.609Z,4.60
2022-12-11T13:41:24.008Z,4.60
2022-12-11T13:43:52.204Z,4.60
2022-12-11T13:46:27.239Z,4.60
2022-12-11T13:49:00.860Z,4.60
2022-12-11T13:51:30.667Z,4.60
2022-12-11T13:54:24.306Z,4.60
2022-12-11T13:57:16.408Z,4.60
2022-12-11T13:59:48.153Z,4.60
2022-12-11T14:02:32.424Z,4.60
2022-12-11T14:05:17.333Z,4.60
2022-12-11T14:07:49.315Z,4.60
2022-12-11T14:10:26.220Z,4.60
2022-12-11T14:13:04.052Z,4.60
2022-12-11T14:15:32.134Z,4.60
2022-12-11T14:18:00.009Z,4.60
2022-12-11T14:20:32.910Z,4.60
2022-12-11T14:23:17.457Z,4.60
2022-12-11T14:25:54.234Z,4.60
2022-12-11T14:28:21.179Z,4.60
2022-12-11T14:30:51.078Z,4.60
2022-12-11T14:33:20.941Z,4.60
2022-12-11T14:35:49.249Z,4.60
2022-12-11T14:38:34.820Z,4.60
2022-12-11T14:41:06.828Z,4.60
2022-12-11T14:43:42.622Z,4.60
2022-12-11T14:46:16.495Z,4.60
2022-12-11T14:49:00.414Z,4.60
2022-12-11T14:51:35.119Z,4.50
2022-12-11T14:54:02.787Z,4.50
2022-12-11T14:56:31.632Z,4.50
2022-12-11T14:59:06.234Z,4.50
2022-12-11T15:01:35.464Z,4.50
2022-12-11T15:04:23.739Z,4.50
2022-12-11T15:06:52.215Z,4.50
2022-12-11T15:09:28.978Z,4.50
2022-12-11T15:11:59.723Z,4.50
2022-12-11T15:14:27.100Z,4.50
2022-12-11T15:16:57.517Z,4.50
2022-12-11T15:19:31.402Z,4.40
2022-12-11T15:22:08.779Z,4.40
2022-12-11T15:24:44.114Z,4.40
2022-12-11T15:27:36.721Z,4.40
2022-12-11T15:30:19.947Z,4.40
2022-12-11T15:32:46.625Z,4.40
2022-12-11T15:35:27.483Z,4.40
2022-12-11T15:37:58.611Z,4.40
2022-12-11T15:40:26.029Z,4.40
2022-12-11T15:42:54.862Z,4.40
2022-12-11T15:45:25.159Z,4.40
2022-12-11T15:47:52.209Z,4.30
2022-12-11T15:50:26.556Z,4.30
2022-12-11T15:52:55.146Z,4.40
2022-12-11T15:55:23.941Z,4.30
2022-12-11T15:58:15.478Z,4.30
2022-12-11T16:00:42.080Z,4.30
2022-12-11T16:03:13.701Z,4.30
2022-12-11T16:05:41.878Z,4.30
2022-12-11T16:08:16.380Z,4.30
2022-12-11T16:10:44.320Z,4.30
2022-12-11T16:13:12.209Z,4.30
2022-12-11T16:15:40.688Z,4.30
2022-12-11T16:18:13.659Z,4.30
2022-12-11T16:20:41.339Z,4.30
2022-12-11T16:23:08.554Z,4.30
2022-12-11T16:25:40.253Z,4.30
2022-12-11T16:28:07.712Z,4.20
2022-12-11T16:30:36.624Z,4.20
2022-12-11T16:33:11.805Z,4.20
2022-12-11T16:35:39.990Z,4.20
2022-12-11T16:38:07.823Z,4.20
2022-12-11T16:40:34.540Z,4.20
2022-12-11T16:43:01.276Z,4.20
2022-12-11T16:45:27.922Z,4.20
2022-12-11T16:47:55.225Z,4.20
2022-12-11T16:50:24.089Z,4.20
2022-12-11T16:52:50.739Z,4.20
2022-12-11T16:55:21.191Z,4.20
2022-12-11T16:57:48.664Z,4.20
2022-12-11T17:00:15.914Z,4.20
2022-12-11T17:02:42.636Z,4.20
2022-12-11T17:05:09.668Z,4.20
2022-12-11T17:07:36.725Z,4.20
2022-12-11T17:10:03.693Z,4.10
2022-12-11T17:12:30.469Z,4.10
2022-12-11T17:14:57.497Z,4.20
2022-12-11T17:17:25.117Z,4.20
2022-12-11T17:19:51.792Z,4.10
2022-12-11T17:22:18.526Z,4.10
2022-12-11T17:24:45.136Z,4.10
2022-12-11T17:27:11.784Z,4.10
2022-12-11T17:29:38.527Z,4.10
2022-12-11T17:32:05.588Z,4.10
2022-12-11T17:34:37.767Z,4.10
2022-12-11T17:37:05.344Z,4.10
2022-12-11T17:39:32.162Z,4.10
2022-12-11T17:41:59.097Z,4.10
2022-12-11T17:44:26.786Z,4.10
2022-12-11T17:46:53.798Z,4.10
2022-12-11T17:49:20.575Z,4.10
2022-12-11T17:51:48.144Z,4.10
2022-12-11T17:54:15.128Z,4.10
2022-12-11T17:56:41.782Z,4.10
2022-12-11T17:59:08.401Z,4.10
2022-12-11T18:01:35.174Z,4.10
2022-12-11T18:04:02.478Z,4.00
2022-12-11T18:06:29.614Z,4.00
2022-12-11T18:08:56.712Z,4.00
2022-12-11T18:11:24.268Z,4.10
2022-12-11T18:13:52.795Z,4.00
2022-12-11T18:16:21.969Z,4.00
2022-12-11T18:18:50.380Z,4.00
2022-12-11T18:21:20.312Z,4.00
2022-12-11T18:23:47.989Z,4.00
2022-12-11T18:26:14.736Z,4.00
2022-12-11T18:28:42.226Z,4.00
2022-12-11T18:31:09.792Z,4.00
2022-12-11T18:33:41.635Z,4.00
2022-12-11T18:36:08.789Z,4.00
2022-12-11T18:38:35.375Z,4.00
2022-12-11T18:41:04.026Z,4.00
2022-12-11T18:43:30.665Z,4.00
2022-12-11T18:45:57.419Z,4.00
2022-12-11T18:48:24.313Z,4.00
2022-12-11T18:50:52.313Z,4.00
2022-12-11T18:53:19.748Z,4.00
2022-12-11T18:55:48.091Z,4.00
2022-12-11T18:58:17.621Z,4.00
2022-12-11T19:00:45.321Z,3.90
2022-12-11T19:03:14.275Z,3.90
2022-12-11T19:05:42.712Z,3.90
2022-12-11T19:08:11.977Z,3.90
2022-12-11T19:10:46.752Z,3.90
2022-12-11T19:13:14.538Z,3.90
2022-12-11T19:15:43.033Z,3.90
2022-12-11T19:18:10.986Z,3.90
2022-12-11T19:20:57.678Z,3.90
2022-12-11T19:23:29.606Z,3.90
2022-12-11T19:25:56.310Z,3.90
2022-12-11T19:28:22.915Z,3.90
2022-12-11T19:30:49.854Z,3.90
2022-12-11T19:33:16.981Z,3.80
2022-12-11T19:35:44.224Z,3.80
2022-12-11T19:38:12.809Z,3.80
2022-12-11T19:40:43.984Z,3.80
2022-12-11T19:43:11.142Z,3.80
2022-12-11T19:45:38.134Z,3.80
2022-12-11T19:48:05.091Z,3.80
2022-12-11T19:50:31.746Z,3.80
2022-12-11T19:52:58.407Z,3.80
2022-12-11T19:55:25.073Z,3.80
2022-12-11T19:57:51.738Z,3.80
2022-12-11T20:00:19.095Z,3.80
2022-12-11T20:02:45.756Z,3.80
2022-12-11T20:05:13.314Z,3.80
2022-12-11T20:07:40.369Z,3.80
2022-12-11T20:10:07.713Z,3.80
2022-12-11T20:12:34.320Z,3.80
2022-12-11T20:15:00.999Z,3.80
2022-12-11T20:17:27.666Z,3.80
2022-12-11T20:19:54.960Z,3.80
2022-12-11T20:22:21.558Z,3.80
2022-12-11T20:24:48.181Z,3.70
2022-12-11T20:27:14.916Z,3.70
2022-12-11T20:29:41.548Z,3.70
2022-12-11T20:32:11.297Z,3.80
2022-12-11T20:34:38.405Z,3.70
2022-12-11T20:37:05.081Z,3.70
2022-12-11T20:39:32.257Z,3.70
2022-12-11T20:41:59.699Z,3.70
2022-12-11T20:44:26.336Z,3.70
2022-12-11T20:46:52.966Z,3.70
2022-12-11T20:49:19.729Z,3.70
2022-12-11T20:51:46.532Z,3.70
2022-12-11T20:54:13.254Z,3.70
2022-12-11T20:56:39.914Z,3.70
2022-12-11T20:59:06.869Z,3.70
2022-12-11T21:01:34.877Z,3.70
2022-12-11T21:04:02.031Z,3.70
2022-12-11T21:06:34.985Z,3.70
2022-12-11T21:09:07.996Z,3.70
2022-12-11T21:11:34.820Z,3.70
2022-12-11T21:14:01.461Z,3.60
2022-12-11T21:16:28.626Z,3.70
2022-12-11T21:18:58.853Z,3.60
2022-12-11T21:21:26.038Z,3.70
2022-12-11T21:23:52.843Z,3.70
2022-12-11T21:26:19.829Z,3.60
2022-12-11T21:28:46.567Z,3.60
2022-12-11T21:31:15.391Z,3.70
2022-12-11T21:33:42.370Z,3.60
2022-12-11T21:36:11.173Z,3.60
2022-12-11T21:38:38.627Z,3.60
2022-12-11T21:41:13.686Z,3.60
2022-12-11T21:44:12.937Z,3.60
2022-12-11T21:46:28.982Z,3.60
2022-12-11T21:48:55.789Z,3.60
2022-12-11T21:51:25.366Z,3.60
2022-12-11T21:53:53.180Z,3.60
2022-12-11T21:56:21.696Z,3.60
2022-12-11T21:58:49.775Z,3.60
2022-12-11T22:01:21.221Z,3.60
2022-12-11T22:03:48.590Z,3.60
2022-12-11T22:06:15.557Z,3.60
2022-12-11T22:08:42.507Z,3.60
2022-12-11T22:11:09.408Z,3.60
2022-12-11T22:13:36.484Z,3.50
2022-12-11T22:16:03.219Z,3.60
2022-12-11T22:18:30.083Z,3.50
2022-12-11T22:20:58.317Z,3.60
2022-12-11T22:23:25.007Z,3.50
2022-12-11T22:25:52.789Z,3.50
2022-12-11T22:28:20.124Z,3.50
2022-12-11T22:30:47.576Z,3.50
2022-12-11T22:33:14.931Z,3.50
2022-12-11T22:35:41.536Z,3.50
2022-12-11T22:38:09.038Z,3.50
2022-12-11T22:40:40.327Z,3.50
2022-12-11T22:43:07.232Z,3.50
2022-12-11T22:45:38.748Z,3.50
2022-12-11T22:48:06.622Z,3.50
2022-12-11T22:50:34.468Z,3.50
2022-12-11T22:53:01.093Z,3.50
2022-12-11T22:55:27.823Z,3.50
2022-12-11T22:57:54.439Z,3.50
2022-12-11T23:00:21.419Z,3.50
2022-12-11T23:02:48.210Z,3.50
2022-12-11T23:05:15.065Z,3.50
2022-12-11T23:07:42.108Z,3.40
2022-12-11T23:10:09.953Z,3.40
2022-12-11T23:12:36.893Z,3.40
2022-12-11T23:15:04.343Z,3.50
2022-12-11T23:17:31.090Z,3.40
2022-12-11T23:19:57.737Z,3.40
2022-12-11T23:22:24.358Z,3.50
2022-12-11T23:24:50.947Z,3.50
2022-12-11T23:27:17.647Z,3.50
2022-12-11T23:29:44.264Z,3.50
2022-12-11T23:32:10.863Z,3.50
2022-12-11T23:34:37.674Z,3.40
2022-12-11T23:37:04.580Z,3.40
2022-12-11T23:39:32.705Z,3.50
2022-12-11T23:41:59.337Z,3.40
2022-12-11T23:44:25.909Z,3.40
2022-12-11T23:46:52.525Z,3.40
2022-12-11T23:49:19.127Z,3.40
2022-12-11T23:51:45.890Z,3.40
2022-12-11T23:54:12.558Z,3.40
2022-12-11T23:56:39.226Z,3.40
2022-12-11T23:59:05.872Z,3.40
